createdAt,value
2018-04-24T00:01:28.248Z,5.00
2018-04-24T00:03:55.900Z,6.00
2018-04-24T00:06:23.575Z,5.50
2018-04-24T00:08:52.589Z,5.87
2018-04-24T00:11:21.183Z,5.50
2018-04-24T00:13:48.906Z,4.90
2018-04-24T00:16:16.405Z,5.90
2018-04-24T00:18:43.935Z,5.70
2018-04-24T00:21:11.477Z,5.10
2018-04-24T00:23:39.694Z,5.43
2018-04-24T00:26:07.230Z,6.20
2018-04-24T00:28:34.769Z,5.40
2018-04-24T00:31:03.015Z,6.60
2018-04-24T00:33:30.842Z,5.23
2018-04-24T00:35:58.957Z,5.07
2018-04-24T00:38:26.484Z,5.60
2018-04-24T00:40:55.185Z,5.40
2018-04-24T00:43:22.876Z,5.43
2018-04-24T00:45:50.421Z,5.30
2018-04-24T00:48:17.971Z,5.80
2018-04-24T00:50:45.808Z,5.30
2018-04-24T00:53:25.689Z,5.60
2018-04-24T00:55:53.221Z,5.27
2018-04-24T00:58:21.374Z,6.03
2018-04-24T01:00:48.909Z,5.47
2018-04-24T01:03:16.416Z,4.97
2018-04-24T01:18:38.989Z,5.03
2018-04-24T01:21:06.762Z,5.40
2018-04-24T01:23:34.255Z,4.30
2018-04-24T01:26:02.928Z,4.70
2018-04-24T01:28:30.644Z,4.60
2018-04-24T01:30:58.227Z,5.10
2018-04-24T01:33:25.724Z,4.70
2018-04-24T01:35:54.978Z,4.80
2018-04-24T01:38:22.507Z,4.63
2018-04-24T01:40:50.041Z,4.83
2018-04-24T01:43:17.603Z,5.20
2018-04-24T01:45:45.093Z,5.20
2018-04-24T01:48:12.621Z,5.40
2018-04-24T01:50:40.189Z,4.90
2018-04-24T01:53:08.487Z,4.53
2018-04-24T01:55:36.009Z,5.10
2018-04-24T01:58:03.524Z,4.70
2018-04-24T02:00:31.631Z,4.80
2018-04-24T02:02:59.819Z,4.50
2018-04-24T02:05:27.313Z,5.00
2018-04-24T02:07:55.611Z,4.63
2018-04-24T02:10:23.138Z,4.57
2018-04-24T02:12:50.707Z,4.80
2018-04-24T02:15:18.238Z,4.97
2018-04-24T02:17:45.723Z,4.90
2018-04-24T02:20:13.520Z,4.63
2018-04-24T02:22:41.044Z,4.27
2018-04-24T02:25:08.704Z,4.10
2018-04-24T02:27:36.190Z,4.90
2018-04-24T02:30:03.701Z,4.53
2018-04-24T02:32:32.169Z,3.93
2018-04-24T02:34:59.723Z,4.37
2018-04-24T02:37:27.284Z,4.43
2018-04-24T02:39:54.867Z,3.77
2018-04-24T02:42:23.920Z,5.20
2018-04-24T02:44:51.479Z,4.80
2018-04-24T02:47:19.503Z,4.60
2018-04-24T02:49:47.067Z,5.00
2018-04-24T02:52:14.626Z,4.80
2018-04-24T02:54:42.968Z,4.87
2018-04-24T02:57:11.285Z,4.63
2018-04-24T02:59:38.868Z,4.70
2018-04-24T03:02:06.444Z,5.17
2018-04-24T03:04:34.017Z,5.37
2018-04-24T03:07:01.769Z,4.43
2018-04-24T03:09:29.891Z,4.33
2018-04-24T03:11:57.630Z,4.37
2018-04-24T03:14:25.815Z,4.90
2018-04-24T03:16:53.340Z,4.33
2018-04-24T03:19:20.896Z,5.83
2018-04-24T03:21:48.457Z,4.40
2018-04-24T03:24:16.573Z,4.63
2018-04-24T03:26:44.133Z,4.60
2018-04-24T03:29:11.662Z,4.30
2018-04-24T03:31:40.162Z,5.37
2018-04-24T03:34:08.466Z,4.03
2018-04-24T03:36:36.031Z,5.57
2018-04-24T03:39:04.373Z,4.90
2018-04-24T03:41:31.956Z,5.40
2018-04-24T03:43:59.507Z,4.50
2018-04-24T03:46:27.088Z,4.93
2018-04-24T03:48:55.456Z,4.90
2018-04-24T03:51:23.699Z,6.03
2018-04-24T03:53:51.812Z,4.73
2018-04-24T03:56:19.375Z,5.50
2018-04-24T03:58:47.686Z,5.10
2018-04-24T04:01:15.437Z,5.73
2018-04-24T04:03:43.012Z,6.70
2018-04-24T04:06:10.569Z,5.20
2018-04-24T04:08:38.123Z,6.00
2018-04-24T04:11:06.214Z,6.17
2018-04-24T04:13:33.746Z,5.73
2018-04-24T04:16:01.403Z,6.60
2018-04-24T04:18:41.122Z,6.50
2018-04-24T04:21:20.407Z,6.70
2018-04-24T04:23:59.718Z,6.97
2018-04-24T04:26:27.283Z,6.20
2018-04-24T04:28:54.824Z,6.93
2018-04-24T04:31:22.369Z,6.97
2018-04-24T04:33:49.889Z,7.97
2018-04-24T04:36:17.535Z,7.60
2018-04-24T04:38:45.084Z,8.50
2018-04-24T04:41:12.877Z,8.00
2018-04-24T04:43:40.400Z,7.97
2018-04-24T04:46:07.957Z,8.40
2018-04-24T04:48:35.509Z,8.70
2018-04-24T04:51:03.065Z,8.67
2018-04-24T04:53:32.149Z,8.80
2018-04-24T04:56:01.477Z,10.20
2018-04-24T04:58:28.949Z,9.40
2018-04-24T05:00:58.233Z,8.67
2018-04-24T05:03:27.348Z,9.10
2018-04-24T05:05:54.933Z,8.73
2018-04-24T05:08:22.720Z,9.30
2018-04-24T05:10:50.515Z,10.17
2018-04-24T05:13:19.080Z,10.13
2018-04-24T05:15:46.756Z,10.60
2018-04-24T05:18:14.304Z,9.57
2018-04-24T05:20:42.198Z,9.07
2018-04-24T05:23:10.679Z,10.27
2018-04-24T05:25:39.013Z,11.20
2018-04-24T05:28:06.540Z,10.40
2018-04-24T05:30:34.157Z,9.53
2018-04-24T05:33:02.237Z,10.13
2018-04-24T05:35:30.664Z,9.97
2018-04-24T05:37:58.259Z,10.13
2018-04-24T05:40:26.075Z,9.30
2018-04-24T05:42:53.625Z,9.27
2018-04-24T05:45:21.376Z,9.00
2018-04-24T05:47:48.854Z,8.80
2018-04-24T05:50:16.914Z,9.17
2018-04-24T05:52:44.470Z,8.40
2018-04-24T05:55:12.928Z,8.60
2018-04-24T05:57:41.443Z,9.63
2018-04-24T06:00:10.564Z,8.80
2018-04-24T06:02:41.952Z,9.07
2018-04-24T06:05:10.121Z,7.93
2018-04-24T06:07:37.679Z,8.53
2018-04-24T06:10:05.588Z,8.70
2018-04-24T06:12:34.006Z,8.53
2018-04-24T06:15:04.043Z,8.23
2018-04-24T06:17:31.936Z,9.13
2018-04-24T06:19:59.472Z,10.37
2018-04-24T06:22:27.119Z,10.27
2018-04-24T06:24:54.848Z,9.60
2018-04-24T06:27:23.460Z,9.40
2018-04-24T06:29:51.089Z,10.90
2018-04-24T06:32:18.650Z,10.20
2018-04-24T06:34:47.578Z,9.03
2018-04-24T06:37:15.123Z,8.17
2018-04-24T06:39:42.814Z,7.43
2018-04-24T06:42:11.333Z,6.77
2018-04-24T06:44:39.541Z,7.00
2018-04-24T06:47:07.188Z,7.63
2018-04-24T06:49:35.505Z,6.03
2018-04-24T06:52:03.047Z,5.80
2018-04-24T06:54:30.634Z,5.50
2018-04-24T06:56:58.166Z,5.63
2018-04-24T06:59:25.745Z,5.17
2018-04-24T07:01:53.433Z,4.83
2018-04-24T07:04:20.952Z,5.90
2018-04-24T07:06:48.561Z,4.73
2018-04-24T07:22:11.254Z,5.17
2018-04-24T07:24:39.340Z,4.83
2018-04-24T07:27:07.975Z,4.70
2018-04-24T07:29:35.495Z,4.80
2018-04-24T07:32:03.020Z,5.70
2018-04-24T07:34:30.575Z,5.10
2018-04-24T07:36:59.366Z,5.43
2018-04-24T07:39:26.931Z,5.60
2018-04-24T07:41:54.677Z,4.30
2018-04-24T07:44:22.478Z,5.50
2018-04-24T07:46:50.056Z,5.10
2018-04-24T07:49:18.121Z,5.37
2018-04-24T07:51:45.985Z,5.60
2018-04-24T07:54:13.786Z,4.80
2018-04-24T07:56:41.316Z,5.90
2018-04-24T07:59:08.902Z,6.30
2018-04-24T08:01:36.445Z,6.23
2018-04-24T08:04:05.226Z,5.47
2018-04-24T08:06:32.795Z,5.40
2018-04-24T08:09:00.392Z,5.53
2018-04-24T08:11:27.931Z,6.50
2018-04-24T08:13:55.501Z,5.80
2018-04-24T08:16:23.820Z,7.03
2018-04-24T08:18:51.343Z,6.00
2018-04-24T08:21:19.719Z,5.10
2018-04-24T08:23:48.093Z,5.27
2018-04-24T08:26:15.716Z,6.20
2018-04-24T08:28:43.273Z,4.60
2018-04-24T08:31:11.738Z,6.10
2018-04-24T08:33:39.306Z,5.17
2018-04-24T08:36:06.840Z,4.90
2018-04-24T08:38:34.399Z,5.57
2018-04-24T08:41:02.608Z,5.70
2018-04-24T08:43:30.166Z,5.43
2018-04-24T08:45:57.749Z,4.40
2018-04-24T08:48:25.327Z,5.20
2018-04-24T08:50:52.861Z,4.73
2018-04-24T08:53:20.437Z,6.10
2018-04-24T08:55:47.992Z,4.63
2018-04-24T08:58:16.653Z,4.70
2018-04-24T09:00:44.213Z,5.10
2018-04-24T09:03:11.770Z,4.70
2018-04-24T09:05:39.353Z,4.40
2018-04-24T09:08:07.079Z,4.40
2018-04-24T09:10:34.624Z,4.27
2018-04-24T09:13:02.217Z,4.67
2018-04-24T09:15:30.691Z,4.53
2018-04-24T09:17:58.252Z,3.63
2018-04-24T09:20:26.040Z,5.07
2018-04-24T09:22:53.600Z,4.00
2018-04-24T09:25:21.847Z,4.60
2018-04-24T09:27:49.386Z,4.67
2018-04-24T09:30:16.929Z,4.30
2018-04-24T09:32:44.515Z,4.00
2018-04-24T09:35:27.690Z,4.67
2018-04-24T09:37:55.274Z,4.43
2018-04-24T09:40:22.887Z,4.23
2018-04-24T09:45:25.330Z,4.07
2018-04-24T09:47:53.664Z,4.03
2018-04-24T09:50:21.218Z,4.63
2018-04-24T09:52:49.705Z,3.87
2018-04-24T09:55:17.855Z,4.67
2018-04-24T09:57:48.910Z,3.70
2018-04-24T10:00:26.316Z,4.40
2018-04-24T10:02:53.886Z,4.43
2018-04-24T10:05:21.418Z,4.50
2018-04-24T10:07:49.622Z,4.33
2018-04-24T10:10:17.156Z,5.07
2018-04-24T10:12:44.945Z,4.87
2018-04-24T10:15:13.033Z,5.20
2018-04-24T10:17:40.770Z,4.90
2018-04-24T10:20:08.368Z,4.17
2018-04-24T10:22:36.693Z,4.77
2018-04-24T10:25:04.256Z,4.73
2018-04-24T10:27:31.796Z,3.80
2018-04-24T10:29:59.427Z,4.70
2018-04-24T10:32:27.265Z,4.87
2018-04-24T10:34:55.402Z,4.90
2018-04-24T10:37:26.892Z,4.97
2018-04-24T10:55:31.320Z,5.30
2018-04-24T10:57:59.970Z,4.47
2018-04-24T11:00:27.553Z,4.57
2018-04-24T11:02:55.127Z,6.10
2018-04-24T11:05:22.698Z,5.40
2018-04-24T11:07:50.432Z,5.50
2018-04-24T11:10:17.990Z,5.10
2018-04-24T11:12:45.537Z,6.23
2018-04-24T11:15:13.398Z,5.30
2018-04-24T11:17:41.033Z,5.27
2018-04-24T11:20:08.720Z,5.20
2018-04-24T11:22:36.312Z,5.47
2018-04-24T11:25:03.885Z,5.30
2018-04-24T11:27:31.442Z,6.13
2018-04-24T11:29:58.989Z,6.03
2018-04-24T11:32:27.546Z,5.70
2018-04-24T11:34:55.025Z,6.03
2018-04-24T11:37:22.589Z,5.43
2018-04-24T11:39:50.409Z,4.27
2018-04-24T11:42:18.409Z,5.20
2018-04-24T11:44:45.987Z,5.70
2018-04-24T11:47:13.522Z,6.20
2018-04-24T11:49:41.191Z,5.10
2018-04-24T11:52:08.684Z,6.13
2018-04-24T11:54:36.209Z,5.07
2018-04-24T11:57:03.826Z,5.40
2018-04-24T11:59:32.573Z,4.43
2018-04-24T12:02:00.132Z,5.50
2018-04-24T12:04:28.639Z,5.57
2018-04-24T12:06:56.231Z,6.13
2018-04-24T12:09:24.120Z,5.57
2018-04-24T12:11:51.681Z,6.07
2018-04-24T12:14:19.237Z,5.50
2018-04-24T12:16:46.797Z,5.73
2018-04-24T12:19:14.902Z,5.80
2018-04-24T12:21:42.467Z,5.00
2018-04-24T12:24:10.019Z,5.97
2018-04-24T12:26:37.721Z,5.27
2018-04-24T12:29:05.307Z,5.03
2018-04-24T12:31:32.835Z,4.77
2018-04-24T12:34:03.093Z,5.10
2018-04-24T12:36:30.639Z,5.87
2018-04-24T12:38:59.857Z,5.30
2018-04-24T12:41:27.393Z,5.00
2018-04-24T12:43:56.486Z,5.00
2018-04-24T12:46:24.027Z,5.47
2018-04-24T12:48:51.786Z,5.60
2018-04-24T12:51:19.351Z,5.10
2018-04-24T12:53:46.966Z,5.30
2018-04-24T12:56:14.723Z,4.77
2018-04-24T12:58:42.454Z,4.37
2018-04-24T13:01:10.777Z,5.63
2018-04-24T13:03:38.344Z,4.93
2018-04-24T13:06:06.206Z,4.40
2018-04-24T13:08:33.745Z,4.30
2018-04-24T13:11:01.311Z,4.67
2018-04-24T13:13:29.619Z,4.30
2018-04-24T13:15:57.210Z,4.03
2018-04-24T13:18:24.748Z,4.43
2018-04-24T13:20:56.203Z,4.80
2018-04-24T13:23:23.771Z,4.70
2018-04-24T13:25:51.845Z,4.53
2018-04-24T13:28:20.303Z,4.67
2018-04-24T13:30:47.858Z,4.47
2018-04-24T13:33:15.553Z,4.23
2018-04-24T13:35:43.145Z,3.50
2018-04-24T13:38:12.253Z,3.77
2018-04-24T13:40:39.829Z,4.43
2018-04-24T13:43:07.463Z,4.40
2018-04-24T13:45:35.176Z,4.00
2018-04-24T13:48:03.032Z,5.20
2018-04-24T13:50:31.118Z,4.40
2018-04-24T13:52:58.734Z,4.70
2018-04-24T13:55:27.295Z,4.57
2018-04-24T13:57:55.583Z,4.10
2018-04-24T14:00:23.159Z,4.37
2018-04-24T14:02:53.772Z,4.80
2018-04-24T14:05:21.800Z,4.77
2018-04-24T14:07:49.376Z,4.10
2018-04-24T14:10:17.080Z,4.33
2018-04-24T14:12:44.712Z,4.50
2018-04-24T14:15:12.310Z,4.30
2018-04-24T14:17:40.170Z,4.10
2018-04-24T14:20:08.634Z,4.10
2018-04-24T14:22:36.682Z,4.53
2018-04-24T14:25:04.293Z,3.50
2018-04-24T14:27:32.045Z,3.70
2018-04-24T14:30:00.254Z,3.63
2018-04-24T14:32:27.878Z,3.60
2018-04-24T14:34:55.492Z,4.13
2018-04-24T14:37:23.252Z,4.00
2018-04-24T14:39:50.807Z,4.23
2018-04-24T14:42:22.144Z,4.07
2018-04-24T14:44:49.753Z,4.13
2018-04-24T14:47:17.314Z,3.97
2018-04-24T14:49:44.892Z,4.10
2018-04-24T14:52:12.639Z,3.97
2018-04-24T14:54:40.213Z,3.80
2018-04-24T14:57:08.904Z,3.80
2018-04-24T14:59:37.936Z,3.43
2018-04-24T15:02:06.884Z,3.63
2018-04-24T15:04:35.278Z,3.13
2018-04-24T15:07:02.922Z,3.43
2018-04-24T15:09:31.234Z,4.00
2018-04-24T15:11:58.824Z,3.53
2018-04-24T15:14:26.431Z,3.97
2018-04-24T15:16:53.979Z,3.50
2018-04-24T15:19:22.401Z,3.37
2018-04-24T15:21:49.938Z,4.10
2018-04-24T15:24:18.914Z,3.63
2018-04-24T15:26:46.504Z,3.90
2018-04-24T15:29:15.024Z,3.63
2018-04-24T15:31:42.590Z,3.60
2018-04-24T15:34:10.286Z,4.10
2018-04-24T15:36:37.834Z,3.90
2018-04-24T15:39:06.201Z,4.20
2018-04-24T15:54:29.772Z,4.63
2018-04-24T15:56:57.304Z,3.70
2018-04-24T15:59:24.871Z,4.40
2018-04-24T16:01:52.409Z,3.57
2018-04-24T16:04:20.245Z,4.00
2018-04-24T16:06:48.290Z,4.10
2018-04-24T16:09:16.382Z,3.80
2018-04-24T16:11:44.690Z,3.57
2018-04-24T16:14:12.403Z,4.03
2018-04-24T16:16:39.995Z,4.33
2018-04-24T16:19:07.668Z,3.90
2018-04-24T16:21:36.041Z,3.90
2018-04-24T16:24:05.226Z,4.10
2018-04-24T16:26:32.743Z,4.50
2018-04-24T16:29:00.561Z,3.80
2018-04-24T16:31:28.890Z,4.60
2018-04-24T16:33:56.580Z,4.20
2018-04-24T16:36:24.086Z,4.07
2018-04-24T16:38:51.659Z,4.10
2018-04-24T16:41:19.339Z,4.30
2018-04-24T16:43:46.929Z,4.00
2018-04-24T16:46:14.457Z,4.43
2018-04-24T16:48:42.053Z,4.40
2018-04-24T16:51:11.377Z,4.37
2018-04-24T16:53:38.930Z,4.10
2018-04-24T16:56:07.841Z,4.33
2018-04-24T16:58:35.679Z,4.37
2018-04-24T17:01:04.028Z,4.20
2018-04-24T17:03:33.205Z,4.60
2018-04-24T17:06:00.757Z,4.20
2018-04-24T17:08:28.376Z,4.60
2018-04-24T17:10:56.105Z,4.10
2018-04-24T17:13:23.674Z,3.60
2018-04-24T17:15:51.210Z,3.60
2018-04-24T17:18:18.781Z,3.77
2018-04-24T17:20:46.654Z,3.97
2018-04-24T17:23:14.400Z,4.03
2018-04-24T17:25:41.935Z,4.20
2018-04-24T17:28:09.571Z,4.00
2018-04-24T17:30:37.152Z,3.80
2018-04-24T17:33:04.674Z,4.10
2018-04-24T17:35:32.302Z,4.07
2018-04-24T17:38:00.051Z,4.93
2018-04-24T17:40:27.582Z,3.60
2018-04-24T17:42:56.008Z,4.60
2018-04-24T17:45:24.318Z,4.73
2018-04-24T17:47:52.162Z,4.37
2018-04-24T17:50:20.530Z,4.40
2018-04-24T17:52:48.073Z,4.50
2018-04-24T17:55:15.615Z,3.97
2018-04-24T17:57:43.240Z,4.97
2018-04-24T18:00:10.914Z,4.57
2018-04-24T18:02:39.241Z,3.90
2018-04-24T18:05:06.890Z,4.70
2018-04-24T18:07:35.778Z,4.40
2018-04-24T18:10:03.370Z,4.63
2018-04-24T18:12:30.908Z,4.40
2018-04-24T18:14:58.795Z,4.67
2018-04-24T18:17:26.359Z,4.50
2018-04-24T18:19:53.905Z,4.63
2018-04-24T18:22:21.845Z,4.80
2018-04-24T18:24:50.471Z,4.20
2018-04-24T18:27:18.125Z,5.10
2018-04-24T18:29:45.672Z,6.00
2018-04-24T18:32:13.200Z,5.03
2018-04-24T18:34:42.069Z,4.87
2018-04-24T18:37:09.619Z,4.43
2018-04-24T18:39:37.885Z,5.23
2018-04-24T18:42:05.430Z,5.17
2018-04-24T18:44:33.196Z,4.77
2018-04-24T18:47:00.802Z,4.73
2018-04-24T18:49:28.353Z,4.80
2018-04-24T18:51:56.617Z,4.93
2018-04-24T18:54:24.225Z,4.67
2018-04-24T18:56:51.771Z,4.83
2018-04-24T18:59:20.150Z,5.80
2018-04-24T19:01:47.827Z,4.47
2018-04-24T19:04:15.649Z,4.63
2018-04-24T19:06:43.197Z,4.77
2018-04-24T19:09:10.797Z,4.10
2018-04-24T19:11:39.350Z,4.20
2018-04-24T19:14:12.632Z,4.80
2018-04-24T19:16:41.018Z,4.80
2018-04-24T19:19:14.073Z,5.50
2018-04-24T19:21:41.861Z,5.50
2018-04-24T19:24:09.445Z,5.17
2018-04-24T19:26:36.986Z,5.20
2018-04-24T19:29:04.557Z,5.37
2018-04-24T19:31:37.835Z,5.10
2018-04-24T19:34:05.441Z,5.17
2018-04-24T19:36:32.991Z,4.63
2018-04-24T19:39:06.125Z,5.33
2018-04-24T19:41:39.165Z,5.10
2018-04-24T19:44:06.923Z,5.30
2018-04-24T19:46:35.341Z,5.60
2018-04-24T19:52:05.400Z,5.07
2018-04-24T19:54:32.993Z,5.20
2018-04-24T19:57:03.215Z,4.80
2018-04-24T20:02:09.940Z,5.50
2018-04-24T20:04:43.271Z,5.30
2018-04-24T20:07:12.203Z,4.93
2018-04-24T20:12:44.567Z,4.87
2018-04-24T20:28:07.980Z,4.70
2018-04-24T20:30:37.724Z,5.50
2018-04-24T20:33:06.140Z,4.87
2018-04-24T20:35:34.201Z,5.00
2018-04-24T20:38:02.530Z,4.80
2018-04-24T20:40:30.850Z,5.57
2018-04-24T20:42:59.433Z,5.77
2018-04-24T20:45:27.054Z,5.17
2018-04-24T20:47:55.432Z,5.50
2018-04-24T20:50:23.731Z,5.47
2018-04-24T20:52:52.019Z,5.17
2018-04-24T20:55:22.458Z,5.83
2018-04-24T20:57:59.511Z,5.60
2018-04-24T21:00:27.280Z,5.60
2018-04-24T21:03:00.094Z,5.03
2018-04-24T21:05:27.672Z,6.17
2018-04-24T21:07:55.248Z,5.50
2018-04-24T21:10:24.485Z,5.83
2018-04-24T21:12:52.009Z,6.23
2018-04-24T21:15:19.535Z,5.70
2018-04-24T21:17:53.273Z,5.70
2018-04-24T21:20:20.820Z,5.80
2018-04-24T21:22:48.347Z,7.23
2018-04-24T21:25:16.006Z,6.03
2018-04-24T21:27:43.554Z,5.60
2018-04-24T21:30:11.079Z,5.80
2018-04-24T21:32:40.305Z,5.40
2018-04-24T21:35:11.331Z,6.40
2018-04-24T21:37:41.696Z,6.00
2018-04-24T21:40:14.035Z,5.80
2018-04-24T21:42:42.663Z,6.23
2018-04-24T21:45:12.951Z,5.67
2018-04-24T21:47:41.165Z,5.70
2018-04-24T21:50:08.725Z,4.90
2018-04-24T21:52:37.146Z,5.73
2018-04-24T21:55:04.802Z,5.87
2018-04-24T21:57:32.334Z,5.77
2018-04-24T21:59:59.936Z,6.07
2018-04-24T22:02:29.277Z,5.87
2018-04-24T22:04:56.928Z,5.93
2018-04-24T22:07:24.470Z,5.67
2018-04-24T22:09:52.299Z,6.57
2018-04-24T22:12:19.857Z,5.63
2018-04-24T22:14:49.023Z,5.83
2018-04-24T22:17:16.591Z,5.20
2018-04-24T22:19:44.139Z,6.73
2018-04-24T22:22:11.697Z,6.07
2018-04-24T22:24:40.009Z,5.70
2018-04-24T22:27:07.577Z,6.33
2018-04-24T22:29:35.118Z,5.70
2018-04-24T22:32:02.655Z,5.90
2018-04-24T22:34:30.216Z,5.90
2018-04-24T22:36:57.773Z,5.50
2018-04-24T22:39:25.330Z,5.20
2018-04-24T22:41:52.938Z,5.70
2018-04-24T22:44:20.506Z,6.13
2018-04-24T22:46:48.043Z,6.73
2018-04-24T22:49:16.449Z,5.63
2018-04-24T22:51:44.097Z,6.33
2018-04-24T22:54:12.388Z,6.03
2018-04-24T22:56:39.954Z,6.10
2018-04-24T22:59:07.720Z,5.97
2018-04-24T23:01:36.061Z,5.30
2018-04-24T23:04:03.614Z,6.00
2018-04-24T23:06:31.376Z,6.43
2018-04-24T23:08:59.897Z,5.37
2018-04-24T23:11:40.158Z,6.40
2018-04-24T23:14:20.566Z,5.50
2018-04-24T23:26:28.222Z,6.27
2018-04-24T23:28:55.782Z,5.60
2018-04-24T23:31:23.558Z,5.90
2018-04-24T23:33:51.266Z,5.90
2018-04-24T23:36:18.884Z,6.60
2018-04-24T23:38:46.556Z,6.17
2018-04-24T23:41:14.168Z,6.30
2018-04-24T23:43:42.466Z,6.40
2018-04-24T23:46:09.998Z,6.00
2018-04-24T23:48:38.523Z,5.73
2018-04-24T23:51:06.108Z,5.80
2018-04-24T23:53:33.659Z,6.50
2018-04-24T23:56:01.239Z,5.90
2018-04-24T23:58:29.623Z,6.30
